Parker, Idaho
Current Conditions -  °F | °C
As of 9:53 AM on Thursday 30 Oct 2014 (Local Time) from KRXE Reporting Station
Overcast Overcast  
Wind Chill:   Ceiling: 10000
Heat Index:   Visibility: 10mi
Dew Point:   Wind: 5mph
Humidity: 76%   Direction: 50°NE
Pressure: 30.32"   Gusts: NA
Location:  43.96°N, 111.76°W
Report Text: KRXE 301553Z AUTO 05004KT 10SM OVC100 05/01 A3032 RMK AO2 SLP276 T00500011
Loading
Personal Weather Stations






























Interactive Weather Map
Tropical Storm Tracking
New forecast layout! Learn more

10-Day Weather Forecast

Advertisements
Track Severe Weather on mobile